Time;durP1;ratioP1;P1;durP2;ratioP2;P2;SDS_P1;SDS_P2;PMS_P1;PMS_P2;Temp;Humidity;BMP_temperature;BMP_pressure;BME280_temperature;BME280_humidity;BME280_pressure;Samples;Min_cycle;Max_cycle;Signal;HPM_P1;HPM_P2
2022/11/08 00:16:00;;;;;;;30.63;17.30;;;;;;;21.72;61.61;100850.13;20988127;28;20060;-74
2022/11/08 00:26:01;;;;;;;30.40;17.55;;;;;;;21.69;62.03;100847.75;20982333;27;20063;-74
2022/11/08 00:36:03;;;;;;;32.80;17.52;;;;;;;21.65;61.57;100843.63;20985146;28;20072;-74
2022/11/08 00:46:03;;;;;;;29.42;17.40;;;;;;;21.67;61.61;100847.00;20991207;28;20556;-74
2022/11/08 00:56:07;;;;;;;29.50;16.90;;;;;;;21.65;61.18;100841.00;20982112;28;20039;-74
2022/11/08 01:06:08;;;;;;;30.00;16.88;;;;;;;21.64;61.56;100838.47;20976016;28;20124;-74
2022/11/08 01:16:18;;;;;;;28.30;15.88;;;;;;;21.63;61.31;100848.19;20968063;28;20064;-75
2022/11/08 01:26:21;;;;;;;25.27;15.07;;;;;;;21.59;61.01;100831.75;20987661;28;20044;-75
2022/11/08 01:36:23;;;;;;;26.42;14.55;;;;;;;21.58;61.31;100834.47;20977337;28;20139;-75
2022/11/08 01:46:34;;;;;;;23.00;13.43;;;;;;;21.49;61.19;100838.59;20982069;28;20451;-74
2022/11/08 01:56:35;;;;;;;26.88;14.52;;;;;;;21.49;61.31;100824.59;20987086;28;20055;-74
2022/11/08 02:06:38;;;;;;;22.98;14.10;;;;;;;21.46;61.33;100823.00;20974220;28;20123;-74
2022/11/08 02:16:38;;;;;;;22.60;13.30;;;;;;;21.42;60.83;100817.13;20975598;28;20041;-74
2022/11/08 02:26:39;;;;;;;20.90;13.20;;;;;;;21.43;60.58;100829.34;20972340;28;20694;-71
2022/11/08 02:36:42;;;;;;;18.17;12.15;;;;;;;21.44;60.92;100815.19;20970745;28;20043;-74
2022/11/08 02:46:42;;;;;;;;;;;;;;;21.47;61.18;100832.59;20977693;28;20079;-74
2022/11/08 02:56:43;;;;;;;19.13;11.85;;;;;;;21.44;60.87;100817.84;20973798;28;19931;-75
2022/11/08 03:06:43;;;;;;;19.02;11.30;;;;;;;21.43;61.18;100824.06;20978780;28;20045;-74
2022/11/08 03:16:44;;;;;;;18.77;11.70;;;;;;;21.42;60.79;100829.44;20973050;28;20199;-74
2022/11/08 03:26:44;;;;;;;16.77;11.27;;;;;;;21.39;60.76;100841.03;20975024;28;20090;-74
2022/11/08 03:36:44;;;;;;;20.00;11.65;;;;;;;21.36;60.94;100843.03;20965471;28;20080;-74
2022/11/08 03:46:45;;;;;;;18.15;10.68;;;;;;;21.36;60.63;100833.38;20983653;28;20032;-74
2022/11/08 03:56:45;;;;;;;16.13;9.98;;;;;;;21.32;61.10;100839.78;20981031;28;20055;-74
2022/11/08 04:06:46;;;;;;;13.77;9.30;;;;;;;21.31;60.52;100834.63;20996607;27;20139;-74
2022/11/08 04:16:46;;;;;;;15.48;10.13;;;;;;;21.28;60.79;100827.78;20984711;28;20048;-74
2022/11/08 04:26:46;;;;;;;13.63;9.50;;;;;;;21.28;61.10;100827.78;20980746;28;20052;-74
2022/11/08 04:36:47;;;;;;;12.60;9.20;;;;;;;21.27;60.67;100821.66;20983939;27;20261;-75
2022/11/08 04:46:47;;;;;;;13.75;9.20;;;;;;;21.27;60.66;100820.84;20986879;28;20044;-74
2022/11/08 04:56:47;;;;;;;13.38;9.65;;;;;;;21.27;61.06;100816.41;20966051;28;20143;-72
2022/11/08 05:06:48;;;;;;;13.13;8.88;;;;;;;21.27;61.07;100819.03;20964701;28;20371;-73
2022/11/08 05:16:48;;;;;;;14.55;8.43;;;;;;;21.35;61.97;100823.78;20972978;28;20068;-75
2022/11/08 05:26:49;;;;;;;11.32;8.00;;;;;;;21.43;61.71;100826.72;20975054;27;20498;-76
2022/11/08 05:36:49;;;;;;;18.35;8.05;;;;;;;21.53;61.87;100839.22;20989809;28;20045;-76
2022/11/08 05:46:49;;;;;;;11.52;8.18;;;;;;;21.57;61.42;100841.56;20995187;28;20537;-78
2022/11/08 05:56:50;;;;;;;18.50;8.50;;;;;;;21.52;57.36;100853.34;20984931;28;20040;-81
2022/11/08 06:06:50;;;;;;;14.32;7.72;;;;;;;21.61;60.43;100851.88;20990488;28;20040;-76
2022/11/08 06:16:51;;;;;;;18.15;7.38;;;;;;;21.59;59.02;100851.97;20985872;28;20068;-77
2022/11/08 06:26:51;;;;;;;10.55;7.03;;;;;;;21.69;60.50;100866.19;20992332;28;20043;-74
2022/11/08 06:36:53;;;;;;;11.65;7.05;;;;;;;21.67;59.82;100870.72;20994118;28;20047;-79
2022/11/08 06:46:56;;;;;;;8.80;6.37;;;;;;;21.71;59.67;100879.25;20991534;28;20060;-78
2022/11/08 06:57:01;;;;;;;12.65;6.32;;;;;;;21.79;59.72;100881.31;20976845;28;20055;-77
2022/11/08 07:07:01;;;;;;;9.90;7.00;;;;;;;21.70;59.26;100886.31;21018899;28;20425;-76
2022/11/08 07:17:02;;;;;;;12.00;6.32;;;;;;;21.79;59.60;100890.09;20994834;28;20118;-77
2022/11/08 07:27:03;;;;;;;11.68;6.45;;;;;;;21.81;59.17;100882.88;21009867;28;20032;-79
2022/11/08 07:37:04;;;;;;;7.72;5.65;;;;;;;21.83;59.26;100885.44;21036299;28;20661;-77
2022/11/08 07:47:04;;;;;;;8.70;6.20;;;;;;;21.85;58.65;100902.81;21022418;28;20040;-78
2022/11/08 07:57:04;;;;;;;8.57;6.22;;;;;;;21.88;59.35;100905.22;21009669;28;20177;-77
2022/11/08 08:07:06;;;;;;;9.35;6.28;;;;;;;21.93;59.02;100894.34;21055886;28;20114;-78
2022/11/08 08:17:06;;;;;;;9.15;6.43;;;;;;;21.94;59.08;100901.31;21043451;28;20045;-78
2022/11/08 08:27:07;;;;;;;11.68;6.57;;;;;;;21.95;58.85;100896.88;21051951;27;20069;-77
2022/11/08 08:37:07;;;;;;;9.45;6.90;;;;;;;21.96;58.85;100899.41;21013604;28;20036;-77
2022/11/08 08:47:07;;;;;;;9.73;6.65;;;;;;;22.00;58.56;100906.13;21029349;28;20071;-77
2022/11/08 08:57:08;;;;;;;10.10;6.68;;;;;;;22.02;58.63;100922.69;21011834;28;20505;-76
2022/11/08 09:07:08;;;;;;;9.45;7.18;;;;;;;22.03;58.50;100926.16;21022970;28;20700;-76
2022/11/08 09:17:10;;;;;;;10.40;7.32;;;;;;;22.09;58.56;100933.63;21012472;28;20040;-77
2022/11/08 09:27:11;;;;;;;10.00;7.40;;;;;;;22.10;58.60;100945.88;21015220;28;20048;-78
2022/11/08 09:37:12;;;;;;;10.02;6.82;;;;;;;22.10;58.50;100935.31;21020042;28;20048;-76
2022/11/08 09:47:21;;;;;;;10.02;6.90;;;;;;;22.11;58.60;100929.09;21006730;28;20113;-76
2022/11/08 09:57:29;;;;;;;9.93;6.47;;;;;;;22.13;58.83;100928.97;20994813;28;20037;-77
2022/11/08 10:07:50;;;;;;;13.52;7.15;;;;;;;22.10;58.25;100927.41;21032577;28;20071;-79
2022/11/08 10:18:19;;;;;;;10.77;7.83;;;;;;;22.12;58.53;100920.22;21025856;28;20052;-78
2022/11/08 10:28:24;;;;;;;11.50;7.05;;;;;;;22.09;58.79;100912.53;21031168;28;20040;-78
2022/11/08 10:38:56;;;;;;;10.40;7.22;;;;;;;22.12;58.98;100903.53;21017553;28;20407;-80
2022/11/08 10:49:09;;;;;;;10.77;7.55;;;;;;;22.11;58.80;100893.97;21031094;28;20043;-81
2022/11/08 10:59:27;;;;;;;;;;;;;;;22.18;58.82;100880.22;21028457;28;20047;-81
2022/11/08 11:09:28;;;;;;;10.88;7.63;;;;;;;22.25;58.63;100863.94;21066207;28;19928;-82
2022/11/08 11:19:29;;;;;;;10.05;7.40;;;;;;;22.34;58.81;100866.72;21017817;28;20049;-81
2022/11/08 11:29:38;;;;;;;22.33;12.97;;;;;;;22.06;52.69;100867.94;20986315;28;20142;-81
2022/11/08 11:39:48;;;;;;;22.55;13.23;;;;;;;22.28;55.23;100851.34;21012591;28;20041;-80
2022/11/08 11:49:50;;;;;;;18.85;11.57;;;;;;;22.45;56.23;100846.63;21017025;28;20053;-78
2022/11/08 12:00:00;;;;;;;;;;;;;;;22.55;56.77;100832.63;20993617;28;20167;-80
2022/11/08 12:10:23;;;;;;;14.75;9.32;;;;;;;22.67;57.02;100820.28;21020000;28;19949;-81
2022/11/08 12:20:43;;;;;;;;;;;;;;;22.78;57.12;100806.25;21008703;28;20051;-81
2022/11/08 12:31:01;;;;;;;16.88;10.32;;;;;;;22.89;57.24;100791.38;21019398;28;19907;-81
2022/11/08 12:41:24;;;;;;;14.95;9.68;;;;;;;22.95;57.20;100780.31;21040371;28;20048;-79
2022/11/08 12:51:27;;;;;;;16.83;9.75;;;;;;;22.99;57.42;100779.97;21017155;28;20119;-78
2022/11/08 13:01:28;;;;;;;15.38;9.93;;;;;;;23.00;56.89;100772.91;21005015;28;20339;-76
2022/11/08 13:11:38;;;;;;;14.07;9.43;;;;;;;23.02;57.01;100777.09;21000618;28;20437;-77
2022/11/08 13:21:40;;;;;;;13.82;9.23;;;;;;;23.01;57.13;100767.47;20987188;28;20041;-78
2022/11/08 13:32:20;;;;;;;14.85;9.65;;;;;;;22.95;56.96;100753.91;20998820;28;20044;-79
2022/11/08 13:42:20;;;;;;;18.83;10.20;;;;;;;22.88;57.01;100776.50;21002063;28;21018;-80
2022/11/08 13:52:44;;;;;;;16.08;10.63;;;;;;;22.84;56.99;100774.09;21021583;28;20094;-80
2022/11/08 14:02:46;;;;;;;19.30;10.27;;;;;;;22.79;56.90;100780.69;21027819;28;20050;-80
2022/11/08 14:12:56;;;;;;;17.27;10.52;;;;;;;22.70;57.26;100775.19;21030242;27;20104;-81
2022/11/08 14:23:17;;;;;;;18.40;9.95;;;;;;;22.70;57.08;100776.97;21005650;28;20045;-83
2022/11/08 14:33:20;;;;;;;13.93;9.97;;;;;;;22.66;56.79;100764.97;20996596;28;20052;-80
2022/11/08 14:43:42;;;;;;;13.77;9.85;;;;;;;22.62;56.87;100774.06;21014267;28;20036;-81
2022/11/08 14:53:51;;;;;;;15.10;9.32;;;;;;;22.55;57.24;100771.91;21001953;28;20036;-81
2022/11/08 15:03:54;;;;;;;14.35;8.82;;;;;;;22.52;57.39;100781.88;21002789;28;20045;-82
2022/11/08 15:14:06;;;;;;;13.27;8.98;;;;;;;22.47;57.47;100778.75;21008342;28;20048;-82
2022/11/08 15:24:13;;;;;;;17.10;10.73;;;;;;;22.36;54.14;100783.03;20990589;28;20056;-82
2022/11/08 15:34:35;;;;;;;19.88;11.88;;;;;;;22.13;55.48;100781.28;20974876;28;20063;-80
2022/11/08 15:44:58;;;;;;;16.77;10.05;;;;;;;22.24;57.05;100789.25;21001845;28;20043;-81
2022/11/08 15:54:59;;;;;;;20.88;12.35;;;;;;;22.25;58.00;100795.34;20996904;28;20506;-79
2022/11/08 16:05:00;;;;;;;16.20;10.55;;;;;;;22.26;58.14;100795.22;20979000;28;20036;-79
2022/11/08 16:15:02;;;;;;;20.77;10.80;;;;;;;22.23;58.34;100798.09;20983064;28;20044;-80
2022/11/08 16:25:03;;;;;;;20.50;11.50;;;;;;;22.10;57.27;100792.06;20984514;28;20040;-78
2022/11/08 16:35:04;;;;;;;19.70;10.15;;;;;;;22.06;57.67;100794.09;20992160;28;20044;-78
2022/11/08 16:45:05;;;;;;;22.13;10.50;;;;;;;21.99;57.86;100806.06;20983683;28;20040;-79
2022/11/08 16:55:11;;;;;;;17.40;10.45;;;;;;;22.01;57.49;100810.25;20986475;28;20028;-79
2022/11/08 17:05:21;;;;;;;18.00;9.38;;;;;;;22.01;57.31;100815.53;20994563;28;20095;-79
2022/11/08 17:15:24;;;;;;;14.80;9.27;;;;;;;21.97;57.46;100811.44;21005459;28;22354;-79
2022/11/08 17:25:25;;;;;;;14.57;9.80;;;;;;;21.97;57.29;100810.59;20983218;28;20062;-78
2022/11/08 17:35:25;;;;;;;15.43;8.98;;;;;;;21.91;57.16;100814.53;20987130;28;20079;-79
2022/11/08 17:45:25;;;;;;;17.73;9.13;;;;;;;21.89;57.97;100808.53;20967497;28;20044;-77
2022/11/08 17:55:26;;;;;;;18.33;9.32;;;;;;;21.90;58.33;100813.69;20981378;28;20337;-81
2022/11/08 18:05:26;;;;;;;23.92;10.35;;;;;;;21.94;59.84;100816.13;20968526;28;20051;-79
2022/11/08 18:15:26;;;;;;;21.75;9.93;;;;;;;21.89;59.21;100812.00;20970799;28;20033;-79
2022/11/08 18:25:27;;;;;;;20.63;10.27;;;;;;;21.88;59.05;100801.56;20973716;28;20036;-78
2022/11/08 18:35:27;;;;;;;29.13;13.68;;;;;;;21.92;59.88;100808.28;20992414;28;20086;-77
2022/11/08 18:45:30;;;;;;;32.38;18.77;;;;;;;21.94;60.15;100790.56;21002982;28;20098;-78
2022/11/08 18:55:30;;;;;;;30.33;16.60;;;;;;;21.99;61.20;100795.50;20971127;28;20557;-78
2022/11/08 19:05:31;;;;;;;28.63;16.35;;;;;;;21.99;61.29;100791.06;20971649;28;20040;-79
2022/11/08 19:15:31;;;;;;;26.98;15.00;;;;;;;22.01;60.59;100791.81;20993983;28;20094;-78
2022/11/08 19:25:32;;;;;;;32.67;14.82;;;;;;;22.05;60.34;100787.97;20995641;28;20064;-77
2022/11/08 19:35:33;;;;;;;24.92;13.45;;;;;;;22.03;60.94;100789.03;20991365;28;20043;-77
2022/11/08 19:45:33;;;;;;;25.88;13.98;;;;;;;22.05;60.59;100795.88;20981116;28;20061;-76
2022/11/08 19:55:34;;;;;;;25.30;13.17;;;;;;;22.05;60.47;100813.50;20966878;28;20043;-75
2022/11/08 20:05:42;;;;;;;30.95;16.48;;;;;;;21.97;58.23;100818.50;21000507;28;20269;-75
2022/11/08 20:15:43;;;;;;;29.20;15.57;;;;;;;21.88;58.15;100823.50;21071422;28;20499;-76
2022/11/08 20:25:43;;;;;;;23.88;14.80;;;;;;;21.90;58.47;100823.41;20997346;28;20039;-74
2022/11/08 20:35:44;;;;;;;23.27;14.07;;;;;;;21.88;59.02;100825.31;21010685;28;20380;-75
2022/11/08 20:45:46;;;;;;;23.75;13.73;;;;;;;21.88;59.27;100820.84;21012890;28;20044;-76
2022/11/08 20:55:57;;;;;;;22.25;13.32;;;;;;;21.90;59.16;100820.78;21004103;27;20063;-75
2022/11/08 21:06:03;;;;;;;21.17;12.82;;;;;;;21.90;59.53;100828.69;21005510;28;20055;-76
2022/11/08 21:16:04;;;;;;;18.95;11.75;;;;;;;21.87;59.03;100832.38;21006026;28;20139;-75
2022/11/08 21:26:05;;;;;;;19.10;11.30;;;;;;;21.87;59.49;100845.56;20987172;28;20055;-74
2022/11/08 21:36:07;;;;;;;20.50;11.77;;;;;;;21.83;59.87;100836.19;20999919;28;20041;-75
2022/11/08 21:46:23;;;;;;;20.27;11.73;;;;;;;21.79;59.54;100829.47;21007277;28;20144;-75
2022/11/08 21:56:33;;;;;;;16.98;11.02;;;;;;;21.78;59.48;100832.22;21005745;28;20050;-74
2022/11/08 22:06:33;;;;;;;17.83;10.50;;;;;;;;;;20959051;28;1122463;-74
2022/11/08 22:16:34;;;;;;;17.00;10.60;;;;;;;21.73;59.64;100828.09;21002332;28;20052;-75
2022/11/08 22:26:35;;;;;;;17.02;10.57;;;;;;;21.73;59.57;100824.63;20985917;28;20081;-75
2022/11/08 22:36:37;;;;;;;16.45;10.13;;;;;;;21.79;60.29;100824.19;20983863;28;20045;-75
2022/11/08 22:46:38;;;;;;;18.53;9.90;;;;;;;21.79;60.03;100829.47;20985866;28;20117;-75
2022/11/08 22:56:39;;;;;;;16.15;10.07;;;;;;;21.77;59.89;100827.88;21002492;28;20289;-75
2022/11/08 23:06:39;;;;;;;14.35;9.38;;;;;;;21.72;59.86;100825.59;21005688;28;20082;-76
2022/11/08 23:16:43;;;;;;;14.93;9.98;;;;;;;21.77;59.93;100823.44;20915409;28;20063;-75
2022/11/08 23:37:02;;;;;;;12.32;8.75;;;;;;;21.80;60.75;100814.47;20982013;28;20131;-75
2022/11/08 23:47:03;;;;;;;12.98;8.95;;;;;;;21.80;60.80;100806.56;20983001;28;20512;-74
2022/11/08 23:57:03;;;;;;;11.65;8.23;;;;;;;21.78;60.59;100806.69;20981180;28;20044;-74
